Tiempo atmosférico en la estación meteorológica de Villanueva De Córdoba, Córdoba (740 m.)



Fecha
DESCASC
Temp. máxima en grados centígrados (hora)
DESCASC
Temp. mínima en grados centígrados (hora)
DESCASC
Temp. media en grados centígrados
DESCASC
Racha de viento máxima en m/sg (hora)
DESCASC
Velocidad máxima media en intervalos de 10 minutos(hora)
DESCASC
Precipitaciones diarias en mm
DESCASC
Precipitaciones de 00:00 a 06:00 en mm
DESCASC
Precipitaciones de 06:00 a 12:00 en mm
DESCASC
Precipitaciones de 12:00 a 18:00 en mm
DESCASC
Precipitaciones de 18:00 a 24:00 en mm
DESCASC
07-01-2021 3 (15:10) 1 (00:00) 2 7.22 (00:50) 3.89 (01:10) 10.6 4.4 4.4 1.8 0
08-01-2021 5.8 (23:50) 1.2 (00:00) 3.5 10.28 (14:50) 5 (16:30) 29 3 4.4 11.2 10.4
09-01-2021 5.6 (00:00) -0.5 (-00:0) 2.5 10.83 (13:40) 5 (06:40) 5.4 2.6 1.2 1.6 0
21-01-2021 11.7 (14:00) 7.4 (00:00) 9.5 15.83 (21:10) 8.61 (21:10) 1.6 0.8 0.2 0.2 0.4
24-12-2020 12.2 (11:50) 8.2 (00:00) 10.2 5.28 (12:40) 2.78 (12:50) 0 0 0 0 0
23-12-2020 13.5 (12:50) 6.6 (00:00) 10 6.67 (14:00) 3.89 (14:00) 0 0 0 0 0
20-01-2021 9.7 (16:20) 4 (00:00) 6.8 14.72 (14:00) 6.39 (14:00) 9.2 0 1.8 2.8 4.6
19-01-2021 13.4 (14:20) 3.2 (00:00) 8.3 7.5 (15:00) 3.89 (14:40) 0 0 0 0 0
18-01-2021 18.1 (16:10) 4.7 (00:00) 11.4 4.72 (12:00) 2.5 (23:40) 0 0 0 0 0
17-01-2021 15.6 (15:40) 4.6 (00:00) 10.1 5.56 (14:20) 2.78 (15:10) 0 0 0 0 0
16-01-2021 14.2 (15:30) 2 (00:00) 8.1 7.78 (14:10) 3.61 (14:10) 0 0 0 0 0
15-01-2021 12.5 (16:20) 1.3 (00:00) 6.9 6.94 (15:00) 3.06 (15:10) 0 0 0 0 0
14-01-2021 10.8 (14:10) 0.6 (08:10) 5.7 6.67 (18:00) 3.06 (21:50) 0 0 0 0 0
13-01-2021 11.2 (16:30) 0.2 (00:00) 5.7 5.83 (06:00) 3.33 (21:50) 0 0 0 0 0
12-01-2021 9.4 (16:00) -2.3 (-00:0) 3.5 5.83 (00:10) 2.78 (19:40) 0 0 0 0 0
11-01-2021 7.2 (15:50) -2.2 (-00:0) 2.5 7.22 (16:20) 3.33 (16:40) 0.2 0 0.2 0 0
10-01-2021 6.7 (14:00) -1 (23:59) 2.8 6.11 (15:00) 3.06 (14:00) 0.2 0 0.2 0 0
27-12-2020 10.8 (16:00) -1.2 (-00:0) 4.8 7.78 (21:50) 3.61 (21:00) 0 0 0 0 0
25-12-2020 9.7 (13:50) 1.4 (00:00) 5.5 10 (19:00) 5.28 (12:50) 0 0 0 0 0
26-12-2020 8.3 (16:00) -1.6 (-00:0) 3.4 14.17 (12:10) 6.39 (12:10) 0 0 0 0 0
06-01-2021 7.1 (15:00) -1.9 (-00:0) 2.6 7.5 (22:30) 3.61 (22:30) 1.8 0 0 0 1.8
05-01-2021 6.4 (15:10) -1.6 (-00:0) 2.4 5.83 (22:20) 2.22 (23:40) 0.6 0 0.6 0 0
04-01-2021 3.3 (14:40) -1 (-00:0) 1.1 6.39 (14:50) 3.61 (14:50) 3.2 0 0 0.6 2.6
03-01-2021 7 (15:50) -2.2 (-00:0) 2.4 8.33 (13:50) 4.17 (12:50) 0 0 0 0 0
02-01-2021 4.9 (15:30) -2.1 (-00:0) 1.4 8.61 (15:30) 4.44 (17:10) 0.2 0 0.2 0 0
01-01-2021 6.3 (16:00) 0.8 (00:00) 3.6 13.33 (04:40) 6.67 (04:40) 0.2 0 0 0 0.2
31-12-2020 7.4 (14:30) -1.2 (-00:0) 3.1 9.72 (17:00) 5.28 (17:00) 0.6 0 0 0 0.6
30-12-2020 8.2 (16:10) -1.2 (-00:0) 3.5 9.17 (08:10) 4.17 (08:40) 0.2 0 0.2 0 0
29-12-2020 7.8 (14:00) 1.4 (00:00) 4.6 12.5 (12:40) 6.94 (13:00) 0.8 0 0 0.6 0.2
28-12-2020 8.4 (13:50) 1.6 (00:00) 5 13.89 (03:30) 7.78 (02:00) 3.6 0 3.6 0 0

Gráficas

Temp. máximas Temp. mínimas Temp. medias Precipitaciones Rachas de viento máximas Velocidades máximas media en intervalos de 10 minutos

Datos horarios

Fecha y hora oficial Temperatura (ºC) Velocidad del viento (km/h) Dirección del viento Racha (km/h) Dirección de racha Precipitación (mm) Presión (hPa) Tendencia (hPa) Humedad (%)
2021-01-21 23:00:00 10 23 Sudoeste 49 Sudoeste 0 930.9 -- 88
2021-01-21 22:00:00 10 21 Sudoeste 57 Sudoeste 0 931.4 -- 88
2021-01-21 21:00:00 10.1 22 Sudoeste 47 Sudoeste 0 931.6 -- 88
2021-01-21 20:00:00 10 24 Sudoeste 47 Sudoeste 0 931.6 -- 91
2021-01-21 19:00:00 9.8 20 Sudoeste 36 Sudoeste 0 931.5 -- 91
2021-01-21 18:00:00 9.7 17 Sudoeste 37 Sudoeste 0.2 931.6 -- 92
2021-01-21 17:00:00 10.1 15 Sudoeste 37 Sudoeste 0 931.4 -- 88
2021-01-21 16:00:00 10.5 23 Sudoeste 45 Sudoeste 0 931.8 -- 84
2021-01-21 15:00:00 11.1 22 Sudoeste 45 Sudoeste 0 931.6 -- 78
2021-01-21 14:00:00 11.5 22 Sudoeste 48 Sudoeste 0 932 -- 75
2021-01-21 13:00:00 10.8 20 Sudoeste 46 Oeste 0 933 -- 78
2021-01-21 12:00:00 9.4 18 Sudoeste 36 Sudoeste 0 933.5 -- 86
2021-01-21 11:00:00 8.4 17 Sudoeste 36 Oeste 0 933.2 -- 93
2021-01-21 10:00:00 8 13 Sudoeste 29 Sudoeste 0 932.1 -- 94
2021-01-21 09:00:00 7.6 13 Sudoeste 28 Sudoeste 0 931.9 -- 94
2021-01-21 08:00:00 7.6 12 Sudoeste 23 Sudoeste 0 931.5 -- 94
2021-01-21 07:00:00 7.7 12 Sudoeste 27 Sudoeste 0.2 931.1 -- 94
2021-01-21 06:00:00 7.7 14 Sudoeste 26 Sudoeste 0 930.8 -- 94
2021-01-21 05:00:00 7.7 13 Sudoeste 24 Sudoeste 0.2 930.8 -- 94
2021-01-21 04:00:00 7.7 11 Sudoeste 24 Sudoeste 0.2 930.5 -- 94
2021-01-21 03:00:00 7.6 12 Sudoeste 21 Sudoeste 0.4 929.9 -- 94
2021-01-21 02:00:00 7.5 12 Sudoeste 29 Sudoeste 0 929.5 -- 93
2021-01-21 01:00:00 7.5 17 Sudoeste 29 Sudoeste 0 929.2 -- 93
2021-01-21 00:00:00 7.5 14 Sudoeste 27 Sudoeste 0.2 929 -- 92
2021-01-20 23:00:00 7.3 14 Sudoeste 35 Sudoeste 0 928.3 -- 90
2021-01-20 22:00:00 7.9 19 Oeste 36 Oeste 1.2 927.7 -- 90
2021-01-20 21:00:00 8.4 9 Sudoeste 16 Sudoeste 0.4 927.4 -- 93
2021-01-20 20:00:00 8.3 7 Sur 23 Sudoeste 0 926.5 -- 93
2021-01-20 19:00:00 8.7 10 Sudoeste 41 Oeste 2.8 925.4 -- 93
2021-01-20 18:00:00 9.1 17 Sudoeste 32 Sudoeste 0 925.3 -- 93
2021-01-20 17:00:00 9.4 16 Sudoeste 36 Sudoeste 0 925.1 -- 94
2021-01-20 16:00:00 8.9 17 Sudoeste 35 Sudoeste 0.4 925.2 -- 94
2021-01-20 15:00:00 8.4 18 Sudoeste 49 Sur 2 925.2 -- 94
2021-01-20 14:00:00 8.1 23 Sur 53 Sur 0 925.9 -- 94
2021-01-20 13:00:00 7.1 21 Sur 45 Sur 0.4 926.8 -- 94
2021-01-20 12:00:00 6.5 15 Sur 42 Sudoeste 0.8 927.8 -- 94
2021-01-20 11:00:00 6.3 18 Sur 39 Sur 0.4 927.9 -- 93
2021-01-20 10:00:00 5.9 19 Sur 39 Sudoeste 0.6 927.9 -- 93
2021-01-20 09:00:00 4.9 14 Sur 33 Sur 0 927.9 -- 92
2021-01-20 08:00:00 4.9 13 Sur 29 Sur 0 928.5 -- 90
2021-01-20 07:00:00 5.2 15 Sur 29 Sudeste 0 928.5 -- 89
2021-01-20 06:00:00 5.2 15 Sur 31 Sur 0 928.8 -- 90
2021-01-20 05:00:00 5.4 11 Sur 28 Sur 0 930 -- 90
2021-01-20 04:00:00 5.8 12 Sur 28 Sur 0 930.8 -- 89
2021-01-20 03:00:00 5.6 8 Sur 24 Sur 0 931.7 -- 87
2021-01-20 02:00:00 5.6 11 Sur 23 Sur 0 932.2 -- 89
2021-01-20 01:00:00 4.7 6 Sur 17 Sudeste 0 933.2 -- 89
2021-01-20 00:00:00 4 8 Sudeste 17 Este 0 933.4 -- 90
2021-01-19 23:00:00 4.3 6 Sur 14 Sur 0 933.8 -- 86
2021-01-19 22:00:00 5 6 Sudeste 17 Sur 0 933.9 -- 84
2021-01-19 21:00:00 5.4 10 Sudoeste 17 Sudoeste 0 934.8 -- 81
2021-01-19 20:00:00 6.5 10 Sur 20 Sudoeste 0 935.2 -- 75
2021-01-19 19:00:00 7.6 8 Sur 16 Sudoeste 0 934.8 -- 65
2021-01-19 18:00:00 10.4 9 Sur 20 Sur 0 935 -- 52
2021-01-19 17:00:00 11 11 Sudoeste 23 Sudoeste 0 935.2 -- 47
2021-01-19 16:00:00 12 10 Sudoeste 24 Sudoeste 0 935.7 -- 52
2021-01-19 15:00:00 13.2 13 Sudoeste 27 Sudoeste 0 936.1 -- 44
2021-01-19 14:00:00 13 12 Sudoeste 23 Sur 0 936.5 -- 42
2021-01-19 13:00:00 12.5 12 Sur 22 Sur 0 937.5 -- 49
2021-01-19 12:00:00 11.2 8 Sur 19 Sur 0 938.3 -- 58
2021-01-19 11:00:00 9.3 8 Sur 17 Sudoeste 0 938.4 -- 68
2021-01-19 10:00:00 6.5 9 Sur 15 Sur 0 938.1 -- 77
2021-01-19 09:00:00 4.1 9 Sur 14 Sur 0 938.1 -- 85
2021-01-19 08:00:00 4.3 9 Sur 17 Sudeste 0 938.1 -- 84
2021-01-19 07:00:00 4.8 6 Sudeste 15 Este 0 938 -- 86
2021-01-19 06:00:00 4.8 7 Sur 13 Sudoeste 0 938.1 -- 85
2021-01-19 05:00:00 4.5 8 Sur 17 Sur 0 938.4 -- 78
2021-01-19 04:00:00 4.4 8 Sur 12 Sur 0 938.9 -- 65
2021-01-19 03:00:00 4.8 8 Sur 14 Sudoeste 0 938.9 -- 62
2021-01-19 02:00:00 4.7 7 Sur 13 Sur 0 939.2 -- 58
2021-01-19 01:00:00 5.5 8 Sur 14 Sur 0 939.5 -- 57
2021-01-19 00:00:00 6.7 9 Sur 15 Sudeste 0 939.5 -- 55
2021-01-18 23:00:00 6.9 8 Sur 12 Sur 0 939.4 -- 55
2021-01-18 22:00:00 7.5 8 Sur 19 Sudeste 0 939.3 -- 49
2021-01-18 21:00:00 7.7 6 Sur 10 Sur 0 939.2 -- 49
2021-01-18 20:00:00 9.1 7 Sur 21 Sudeste 0 939.1 -- 44
2021-01-18 19:00:00 11.2 6 Sur 8 Sur 0 938.7 -- 42
2021-01-18 18:00:00 15.5 5 Sudoeste 15 Sur 0 938.4 -- 35
2021-01-18 17:00:00 17.1 8 Sur 15 Sur 0 938.1 -- 31
2021-01-18 16:00:00 17.9 6 Sur 13 Sur 0 937.9 -- 24
2021-01-18 15:00:00 16.4 5 Noroeste 14 Noroeste 0 938.2 -- 28
2021-01-18 14:00:00 16.2 3 Norte 13 Nordeste 0 938.7 -- 26
2021-01-18 13:00:00 16 4 Este 14 Este 0 939.4 -- 27
2021-01-18 12:00:00 14.6 6 Este 17 Este 0 940 -- 30
2021-01-18 11:00:00 13.1 4 Nordeste 9 Nordeste 0 940 -- 27
2021-01-18 10:00:00 9.3 5 Nordeste 8 Nordeste 0 939.5 -- 36
2021-01-18 09:00:00 5.4 6 Nordeste 12 Este 0 939.1 -- 37
2021-01-18 08:00:00 5.5 6 Nordeste 9 Nordeste 0 939 -- 37
2021-01-18 07:00:00 5 6 Nordeste 8 Sudeste 0 939 -- 40
2021-01-18 06:00:00 6.8 4 Sur 8 Sur 0 938.7 -- 34
2021-01-18 05:00:00 6.3 6 Sudeste 12 Este 0 938.7 -- 35
2021-01-18 04:00:00 7.3 9 Este 13 Este 0 939.1 -- 33
2021-01-18 03:00:00 7.5 6 Este 10 Este 0 939.3 -- 35
2021-01-18 02:00:00 7 7 Este 10 Este 0 939.4 -- 37
2021-01-18 01:00:00 7.2 7 Nordeste 10 Nordeste 0 940 -- 38
2021-01-18 00:00:00 6.6 6 Norte 13 Norte 0 940.2 -- 39
2021-01-17 23:00:00 7.5 8 Norte 15 Norte 0 940 -- 33
2021-01-17 22:00:00 8.5 8 Norte 16 Noroeste 0 940 -- 31
2021-01-17 21:00:00 8.9 10 Noroeste 17 Norte 0 940.1 -- 36
2021-01-17 20:00:00 9.3 9 Noroeste 14 Noroeste 0 940.4 -- 43
2021-01-17 19:00:00 10.2 9 Noroeste 13 Noroeste 0 940.3 -- 34
2021-01-17 18:00:00 13.4 5 Noroeste 12 Noroeste 0 940.1 -- 29
2021-01-17 17:00:00 15.1 6 Noroeste 18 Norte 0 940.1 -- 24
2021-01-17 16:00:00 15.4 8 Noroeste 18 Noroeste 0 940.3 -- 25
2021-01-17 15:00:00 15.4 8 Noroeste 20 Noroeste 0 940.5 -- 26
2021-01-17 14:00:00 14.6 8 Norte 18 Norte 0 941 -- 27
2021-01-17 13:00:00 13.6 9 Norte 17 Noroeste 0 941.8 -- 21
2021-01-17 12:00:00 13.9 5 Norte 12 Norte 0 942.5 -- 21
2021-01-17 11:00:00 14.4 2 Oeste 5 Este 0 942.2 -- 18
2021-01-17 10:00:00 11.2 3 Este 8 Este 0 941.7 -- 19
2021-01-17 09:00:00 7.3 4 Sudeste 7 Sudeste 0 941.2 -- 20
2021-01-17 08:00:00 7.2 5 Este 6 Este 0 940.9 -- 19
2021-01-17 07:00:00 6.7 3 Noroeste 5 Noroeste 0 940.9 -- 19
2021-01-17 06:00:00 6.9 3 Noroeste 6 Norte 0 940.9 -- 20
2021-01-17 05:00:00 6.8 6 Noroeste 7 Noroeste 0 941 -- 25
2021-01-17 04:00:00 6.4 2 Noroeste 8 Nordeste 0 941.3 -- 30
2021-01-17 03:00:00 5 6 Norte 12 Noroeste 0 941.6 -- 34
2021-01-17 02:00:00 4.6 5 Oeste 8 Nordeste 0 941.9 -- 31
2021-01-17 01:00:00 4.9 7 Nordeste 12 Nordeste 0 941.9 -- 32
2021-01-17 00:00:00 5.2 8 Nordeste 13 Norte 0 942 -- 40
2021-01-16 23:00:00 5.5 8 Norte 18 Nordeste 0 941.9 -- 40
2021-01-16 22:00:00 6.1 5 Nordeste 12 Norte 0 941.8 -- 30
2021-01-16 21:00:00 6.6 5 Nordeste 9 Norte 0 941.5 -- 26
2021-01-16 20:00:00 6.6 2 Nordeste 18 Este 0 941.3 -- 30
2021-01-16 19:00:00 8.3 5 Norte 14 Nordeste 0 940.8 -- 28
2021-01-16 18:00:00 11.5 8 Nordeste 22 Norte 0 940.5 -- 24
2021-01-16 17:00:00 13.3 9 Nordeste 27 Nordeste 0 940 -- 21
2021-01-16 16:00:00 14 13 Nordeste 27 Norte 0 939.9 -- 19
2021-01-16 15:00:00 13.9 12 Nordeste 28 Nordeste 0 940.1 -- 27
2021-01-16 14:00:00 13.3 9 Nordeste 21 Norte 0 940.5 -- 32
2021-01-16 13:00:00 11.6 4 Norte 18 Norte 0 941 -- 35
2021-01-16 12:00:00 10 7 Noroeste 13 Norte 0 941.4 -- 44
2021-01-16 11:00:00 9.7 5 Norte 12 Norte 0 940.8 -- 46
2021-01-16 10:00:00 6.1 6 Norte 15 Norte 0 940.1 -- 54
2021-01-16 09:00:00 3.2 10 Norte 19 Norte 0 939.5 -- 69
2021-01-16 08:00:00 2.4 9 Norte 20 Norte 0 939.4 -- 73
2021-01-16 07:00:00 2.5 7 Noroeste 14 Noroeste 0 939.2 -- 67
2021-01-16 06:00:00 2.3 6 Norte 23 Norte 0 938.8 -- 68
2021-01-16 05:00:00 2.6 7 Norte 16 Norte 0 938.8 -- 68
2021-01-16 04:00:00 2.6 7 Norte 13 Norte 0 938.8 -- 72
2021-01-16 03:00:00 2.8 6 Norte 13 Norte 0 938.9 -- 76
2021-01-16 02:00:00 3.4 6 Norte 12 Norte 0 939 -- 72
2021-01-16 01:00:00 3.5 7 Norte 14 Nordeste 0 939.6 -- 69
2021-01-16 00:00:00 3.3 9 Nordeste 15 Norte 0 939.5 -- 73
2021-01-15 23:00:00 3 8 Nordeste 16 Norte 0 939.5 -- 74
2021-01-15 22:00:00 3.5 8 Nordeste 17 Norte 0 939.4 -- 71
2021-01-15 21:00:00 4 7 Nordeste 12 Nordeste 0 938.9 -- 68
2021-01-15 20:00:00 4.5 6 Este 10 Nordeste 0 939.1 -- 67
2021-01-15 19:00:00 5.6 6 Nordeste 13 Nordeste 0 939.1 -- 64
2021-01-15 18:00:00 8.1 7 Nordeste 22 Norte 0 939 -- 57
2021-01-15 17:00:00 11.1 8 Norte 19 Noroeste 0 938.7 -- 50
2021-01-15 16:00:00 12.2 9 Norte 23 Norte 0 938.7 -- 45
2021-01-15 15:00:00 11.9 10 Norte 25 Norte 0 938.6 -- 46
2021-01-15 14:00:00 11.1 7 Norte 16 Norte 0 938.9 -- 50
2021-01-15 13:00:00 10.1 7 Norte 14 Noroeste 0 939.9 -- 55
2021-01-15 12:00:00 9.1 7 Noroeste 13 Noroeste 0 940.4 -- 55
2021-01-15 11:00:00 7.8 4 Norte 10 Norte 0 940.4 -- 55
2021-01-15 10:00:00 5.9 4 Nordeste 8 Nordeste 0 939.9 -- 65
2021-01-15 09:00:00 3 3 Este 6 Sudeste 0 939.3 -- 69
2021-01-15 08:00:00 3.5 4 Nordeste 8 Este 0 939 -- 71
2021-01-15 07:00:00 2.9 5 Este 9 Este 0 938.8 -- 67
2021-01-15 06:00:00 3.2 4 Este 8 Este 0 938.9 -- 55
2021-01-15 05:00:00 3 6 Este 9 Nordeste 0 939.1 -- 59
2021-01-15 04:00:00 1.8 8 Nordeste 22 Nordeste 0 939.1 -- 75
2021-01-15 03:00:00 1.5 6 Nordeste 19 Nordeste 0 939.1 -- 84
2021-01-15 02:00:00 1.5 3 Noroeste 14 Nordeste 0 939.3 -- 84
2021-01-15 01:00:00 1.6 8 Norte 13 Norte 0 939.5 -- 84
2021-01-15 00:00:00 2.4 6 Noroeste 19 Norte 0 939.6 -- 82
2021-01-14 23:00:00 3.6 9 Noroeste 21 Noroeste 0 939.3 -- 77
2021-01-14 22:00:00 4.1 10 Noroeste 20 Norte 0 939.1 -- 78
2021-01-14 21:00:00 3.8 6 Noroeste 17 Oeste 0 938.7 -- 72
2021-01-14 20:00:00 4.3 7 Noroeste 17 Noroeste 0 938.7 -- 74
2021-01-14 19:00:00 4.7 8 Noroeste 18 Noroeste 0 938.7 -- 71
2021-01-14 18:00:00 6.7 9 Noroeste 24 Noroeste 0 938.5 -- 65
2021-01-14 17:00:00 8.8 9 Noroeste 18 Oeste 0 938.3 -- 57
2021-01-14 16:00:00 8.6 7 Noroeste 17 Noroeste 0 938 -- 61
2021-01-14 15:00:00 8.9 8 Noroeste 13 Noroeste 0 938 -- 54
2021-01-14 14:00:00 10.6 4 Oeste 10 Noroeste 0 938.6 -- 43
2021-01-14 13:00:00 8.2 3 Oeste 12 Noroeste 0 939.3 -- 50
2021-01-14 12:00:00 6.9 5 Noroeste 10 Noroeste 0 940 -- 58
2021-01-14 11:00:00 5.5 6 Norte 12 Noroeste 0 939.8 -- 62
2021-01-14 10:00:00 3.5 3 Noroeste 9 Noroeste 0 939.7 -- 68
2021-01-14 09:00:00 0.8 3 Oeste 8 Norte 0 939.5 -- 74
2021-01-14 08:00:00 0.9 5 Norte 17 Norte 0 939.3 -- 74
2021-01-14 07:00:00 1.9 8 Noroeste 12 Noroeste 0 939.2 -- 70
2021-01-14 06:00:00 1.9 4 Norte 13 Este 0 939.2 -- 71
2021-01-14 05:00:00 1.8 5 Norte 10 Norte 0 939.5 -- 71
2021-01-14 04:00:00 1.9 6 Norte 12 Noroeste 0 939.9 -- 71
2021-01-14 03:00:00 1.9 6 Norte 22 Norte 0 940.3 -- 70
2021-01-14 02:00:00 2.6 9 Noroeste 15 Noroeste 0 940.4 -- 66
2021-01-14 01:00:00 2.2 7 Norte 13 Norte 0 940.7 -- 69
2021-01-14 00:00:00 3.1 8 Noroeste 16 Noroeste 0 941 -- 61
2021-01-13 23:00:00 3.6 11 Noroeste 18 Noroeste 0 941.1 -- 57
2021-01-13 22:00:00 4 12 Noroeste 19 Noroeste 0 941 -- 62
2021-01-13 21:00:00 5.1 11 Noroeste 18 Noroeste 0 940.9 -- 54
2021-01-13 20:00:00 5.7 10 Noroeste 17 Noroeste 0 941 -- 50
2021-01-13 19:00:00 5.8 8 Noroeste 14 Noroeste 0 940.7 -- 48
2021-01-13 18:00:00 9.4 6 Noroeste 13 Noroeste 0 940.5 -- 38
2021-01-13 17:00:00 10.5 9 Noroeste 15 Noroeste 0 940.4 -- 29
2021-01-13 16:00:00 10.9 8 Noroeste 19 Norte 0 940.5 -- 30
2021-01-13 15:00:00 10.8 11 Norte 21 Noroeste 0 940.3 -- 31
2021-01-13 14:00:00 10 9 Norte 18 Norte 0 941 -- 33
2021-01-13 13:00:00 8.9 8 Noroeste 17 Norte 0 941.8 -- 35
2021-01-13 12:00:00 7.9 8 Noroeste 14 Norte 0 942.3 -- 36
2021-01-13 11:00:00 5.5 3 Noroeste 12 Norte 0 942.3 -- 46
2021-01-13 10:00:00 4.3 5 Norte 12 Nordeste 0 941.8 -- 44
2021-01-13 09:00:00 1 4 Noroeste 12 Noroeste 0 941.2 -- 53
2021-01-13 08:00:00 2.4 6 Norte 13 Norte 0 940.7 -- 43
2021-01-13 07:00:00 1.7 6 Norte 15 Norte 0 940.7 -- 45
2021-01-13 06:00:00 0.7 7 Norte 21 Nordeste 0 940.5 -- 52
2021-01-13 05:00:00 0.9 6 Norte 15 Este 0 940.7 -- 52
2021-01-13 04:00:00 1.3 5 Norte 9 Nordeste 0 941.1 -- 46
2021-01-13 03:00:00 2.3 6 Nordeste 21 Nordeste 0 941.2 -- 39
2021-01-13 02:00:00 2 4 Nordeste 6 Nordeste 0 941.3 -- 43
2021-01-13 01:00:00 1.5 5 Nordeste 10 Norte 0 941.9 -- 48
2021-01-13 00:00:00 1.1 6 Nordeste 13 Sudeste 0 941.9 -- 55
2021-01-12 23:00:00 1.9 7 Norte 10 Norte 0 942 -- 53
2021-01-12 22:00:00 1.4 4 Noroeste 14 Norte 0 941.8 -- 61
2021-01-12 21:00:00 2.7 7 Noroeste 18 Norte 0 941.5 -- 57
2021-01-12 20:00:00 4 10 Noroeste 15 Noroeste 0 941.2 -- 50
2021-01-12 19:00:00 4.1 7 Noroeste 12 Noroeste 0 941 -- 51
2021-01-12 18:00:00 7 6 Noroeste 13 Noroeste 0 940.6 -- 43
2021-01-12 17:00:00 8.8 5 Norte 11 Oeste 0 940.3 -- 33
2021-01-12 16:00:00 9.1 4 Este 13 Norte 0 940 -- 31
2021-01-12 15:00:00 8.7 5 Norte 10 Norte 0 940 -- 35
2021-01-12 14:00:00 8.2 4 Este 9 Norte 0 940.4 -- 34
2021-01-12 13:00:00 7.4 3 Sur 9 Nordeste 0 941 -- 41
2021-01-12 12:00:00 5.4 4 Norte 9 Nordeste 0 941.8 -- 45
2021-01-12 11:00:00 5.4 3 Sur 9 Sur 0 941.5 -- 46
2021-01-12 10:00:00 1.7 3 Sur 6 Sur 0 940.6 -- 64
2021-01-12 09:00:00 -1.9 4 Noroeste 7 Noroeste 0 940.2 -- 67
2021-01-12 08:00:00 -1.6 2 Noroeste 7 Norte 0 939.7 -- 63
2021-01-12 07:00:00 -1.9 5 Norte 8 Norte 0 938.8 -- 64
2021-01-12 06:00:00 -2.1 5 Norte 17 Norte 0 938.6 -- 66
2021-01-12 05:00:00 -1 4 Sudeste 8 Este 0 938.3 -- 60
2021-01-12 04:00:00 -0.7 6 Este 17 Sudeste 0 938.4 -- 57
2021-01-12 03:00:00 -1.6 6 Este 9 Este 0 938.2 -- 62
2021-01-12 02:00:00 -2.1 6 Este 17 Este 0 937.8 -- 67
2021-01-12 01:00:00 -1.3 6 Este 21 Este 0 937.5 -- 68
2021-01-12 00:00:00 -2.1 5 Nordeste 10 Norte 0 937.3 -- 71
2021-01-11 23:00:00 -1.8 4 Norte 22 Nordeste 0 936.8 -- 72
2021-01-11 22:00:00 -0.9 8 Norte 16 Norte 0 936.1 -- 71
2021-01-11 21:00:00 -0.1 9 Norte 21 Nordeste 0 935.7 -- 72
2021-01-11 20:00:00 0.6 8 Nordeste 19 Norte 0 935.1 -- 70
2021-01-11 19:00:00 1.6 9 Norte 19 Norte 0 934.5 -- 70
2021-01-11 18:00:00 3.9 10 Norte 22 Norte 0 933.9 -- 64
2021-01-11 17:00:00 5.5 10 Norte 26 Norte 0 933.3 -- 59
2021-01-11 16:00:00 7 10 Norte 19 Noroeste 0 932.5 -- 59
2021-01-11 15:00:00 6.8 5 Norte 18 Norte 0 932 -- 59
2021-01-11 14:00:00 6.3 9 Norte 19 Norte 0 931.9 -- 63
2021-01-11 13:00:00 5.6 7 Noroeste 18 Norte 0 932.2 -- 65
2021-01-11 12:00:00 4.5 6 Noroeste 15 Nordeste 0 932.6 -- 70
2021-01-11 11:00:00 3.2 5 Nordeste 15 Nordeste 0.2 932 -- 75
2021-01-11 10:00:00 0.4 5 Nordeste 19 Norte 0 930.9 -- 85
2021-01-11 09:00:00 -1.6 9 Norte 17 Norte 0 930.1 -- 90
2021-01-11 08:00:00 -1.4 5 Norte 22 Nordeste 0 929.5 -- 90
2021-01-11 07:00:00 -1.5 6 Nordeste 18 Este 0 928.9 -- 91
2021-01-11 06:00:00 -0.9 5 Nordeste 17 Nordeste 0 928.6 -- 89
2021-01-11 05:00:00 -1 9 Nordeste 18 Este 0 928.2 -- 91
2021-01-11 04:00:00 -0.9 8 Nordeste 17 Nordeste 0 928.1 -- 92
2021-01-11 03:00:00 -1.3 10 Nordeste 18 Este 0 928.2 -- 92
2021-01-11 02:00:00 -1.4 8 Nordeste 16 Nordeste 0 927.6 -- 93
2021-01-11 01:00:00 -1 9 Nordeste 18 Nordeste 0 927.4 -- 91
2021-01-11 00:00:00 -1 10 Nordeste 17 Nordeste 0 927.1 -- 91
2021-01-10 23:00:00 -0.6 9 Nordeste 18 Este 0 926.9 -- 90
2021-01-10 22:00:00 -0.5 8 Nordeste 13 Nordeste 0 926.6 -- 88
2021-01-10 21:00:00 0.1 8 Nordeste 16 Nordeste 0 926.2 -- 87
2021-01-10 20:00:00 0.8 8 Nordeste 16 Nordeste 0 925.7 -- 87
2021-01-10 19:00:00 2.2 5 Nordeste 15 Norte 0 925.3 -- 83
2021-01-10 18:00:00 3.3 6 Nordeste 15 Norte 0 924.5 -- 80
2021-01-10 17:00:00 4.7 3 Nordeste 12 Nordeste 0 923.7 -- 71
2021-01-10 16:00:00 4.9 6 Nordeste 17 Nordeste 0 923.2 -- 72
2021-01-10 15:00:00 4.8 10 Norte 22 Norte 0 922.7 -- 75
2021-01-10 14:00:00 6.5 11 Sur 22 Oeste 0 922.5 -- 64
2021-01-10 13:00:00 5.5 5 Este 13 Este 0 922.8 -- 71
2021-01-10 12:00:00 3.8 4 Nordeste 12 Este 0 923.1 -- 83
2021-01-10 11:00:00 2.1 6 Sudeste 11 Sudeste 0.2 922.8 -- 94
2021-01-10 10:00:00 0.2 2 Sur 17 Este 0 922 -- 95
2021-01-10 09:00:00 -0.5 8 Este 19 Este 0 920.9 -- 95
2021-01-10 08:00:00 -0.5 6 Este 18 Este 0 920.2 -- 95
2021-01-10 07:00:00 0 9 Este 20 Este 0 919.6 -- 95
2021-01-10 06:00:00 0.2 8 Este 18 Este 0 919.3 -- 95
2021-01-10 05:00:00 -0.1 5 Este 14 Este 0 919.1 -- 95
2021-01-10 04:00:00 0.2 8 Nordeste 17 Este 0 919.1 -- 94
2021-01-10 03:00:00 0.5 6 Este 18 Este 0 918.6 -- 94
2021-01-10 02:00:00 0.3 4 Este 18 Este 0 918.5 -- 94
2021-01-10 01:00:00 0.4 6 Este 19 Sudeste 0 918.6 -- 94
2021-01-10 00:00:00 0.4 7 Este 17 Este 0 918.4 -- 94
2021-01-09 23:00:00 0.3 9 Este 26 Este 0 918.6 -- 95
2021-01-09 22:00:00 -0.4 6 Este 14 Sudeste 0 918.4 -- 94
2021-01-09 21:00:00 -0.2 7 Sudeste 12 Sudeste 0 918.2 -- 95
2021-01-09 20:00:00 0.2 8 Sudeste 13 Sudeste 0 918 -- 94
2021-01-09 19:00:00 0.6 4 Este 17 Sur 0 917.9 -- 94
2021-01-09 18:00:00 1.5 9 Sur 25 Sur 0 917.4 -- 94
2021-01-09 17:00:00 1.9 10 Sur 21 Sur 0.2 917.1 -- 94
2021-01-09 16:00:00 1.7 10 Sur 29 Sudoeste 0.2 916.6 -- 95
2021-01-09 15:00:00 1.4 15 Sudoeste 35 Sudoeste 0.2 916.3 -- 95
2021-01-09 14:00:00 1.8 17 Sur 39 Sur 0.4 916 -- 95
2021-01-09 13:00:00 1.7 14 Sur 33 Sur 0.6 916.3 -- 95
2021-01-09 12:00:00 1.3 14 Sudoeste 29 Sudoeste 0.4 916.8 -- 95
2021-01-09 11:00:00 1.7 16 Sudoeste 28 Sudoeste 0 916.6 -- 95
2021-01-09 10:00:00 1.6 14 Sudoeste 28 Sudoeste 0.2 915.8 -- 95
2021-01-09 09:00:00 1.7 14 Sudoeste 32 Sudoeste 0.2 915 -- 95
2021-01-09 08:00:00 2.3 16 Sudoeste 32 Sudoeste 0.2 914.3 -- 95
2021-01-09 07:00:00 2.7 14 Sudoeste 36 Sudoeste 0.2 913.9 -- 95
2021-01-09 06:00:00 3 14 Sudoeste 28 Sudoeste 0.2 913.7 -- 95
2021-01-09 05:00:00 2.7 9 Sudoeste 23 Sudoeste 0 913.8 -- 95
2021-01-09 04:00:00 2.6 8 Sudoeste 19 Sudoeste 0 913.9 -- 95
2021-01-09 03:00:00 2.9 8 Sudoeste 16 Sudoeste 0.2 913.6 -- 95
2021-01-09 02:00:00 2.7 7 Sudoeste 17 Sudoeste 0.6 913.4 -- 95
2021-01-09 01:00:00 2.9 9 Oeste 15 Oeste 1.6 912.8 -- 95
2021-01-09 00:00:00 5.6 7 Sudoeste 16 Sudeste 1.6 912.7 -- 94
2021-01-08 23:00:00 5.3 3 Sur 22 Este 1.4 912.6 -- 94
2021-01-08 22:00:00 4.9 9 Este 25 Este 1.6 912.6 -- 94
2021-01-08 21:00:00 4.7 11 Este 18 Este 2.6 912.6 -- 94
2021-01-08 20:00:00 4.8 3 Este 17 Este 2 913.2 -- 94
2021-01-08 19:00:00 4.7 8 Este 32 Este 1.2 912.6 -- 94
2021-01-08 18:00:00 4.5 14 Este 31 Este 0.6 912.8 -- 94
2021-01-08 17:00:00 4.4 14 Este 33 Este 1.2 913.6 -- 94
2021-01-08 16:00:00 4.4 15 Este 35 Este 1.6 913.8 -- 94
2021-01-08 15:00:00 4.2 15 Este 37 Este 1.4 914.5 -- 94
2021-01-08 14:00:00 4.1 15 Este 28 Este 2.4 915.6 -- 94
2021-01-08 13:00:00 4 11 Este 25 Este 4 916.8 -- 94
2021-01-08 12:00:00 4 12 Este 30 Nordeste 1.4 918.1 -- 94
2021-01-08 11:00:00 3.9 14 Este 25 Este 0.4 918.4 -- 95
2021-01-08 10:00:00 3.3 8 Nordeste 19 Nordeste 1.2 918.6 -- 95
2021-01-08 09:00:00 3.1 10 Nordeste 19 Nordeste 0.4 918.4 -- 95
2021-01-08 08:00:00 2.7 8 Nordeste 16 Nordeste 0.6 918.3 -- 95
2021-01-08 07:00:00 2.4 8 Nordeste 17 Nordeste 0.4 918.4 -- 95
2021-01-08 06:00:00 2.1 7 Nordeste 17 Nordeste 0.6 918.6 -- 95
2021-01-08 05:00:00 2.3 9 Nordeste 18 Nordeste 0.8 919.6 -- 95
2021-01-08 04:00:00 2.1 7 Nordeste 24 Este 0.6 920.4 -- 95
2021-01-08 03:00:00 1.8 8 Este 21 Este 0.4 920.6 -- 95
2021-01-08 02:00:00 1.3 6 Este 10 Nordeste 0.2 921 -- 94
2021-01-08 01:00:00 1.3 5 Nordeste 13 Nordeste 0.4 921.5 -- 94
2021-01-08 00:00:00 1.2 6 Nordeste 20 Nordeste 0 921.6 -- 94
2021-01-07 23:00:00 1 7 Nordeste 13 Nordeste 0 921.7 -- 94
2021-01-07 22:00:00 1 5 Nordeste 19 Nordeste 0 921.9 -- 94
2021-01-07 21:00:00 1.1 8 Nordeste 18 Nordeste 0 921.9 -- 94
2021-01-07 20:00:00 1.2 9 Nordeste 16 Norte 0 922.1 -- 94
2021-01-07 19:00:00 1.8 5 Norte 10 Norte 0 922.3 -- 93
2021-01-07 18:00:00 2.2 6 Nordeste 13 Nordeste 0 922.2 -- 93
2021-01-07 17:00:00 2.7 6 Nordeste 14 Norte 0 921.9 -- 93
2021-01-07 16:00:00 2.8 6 Nordeste 21 Nordeste 0.2 921.6 -- 93
2021-01-07 15:00:00 2.7 8 Nordeste 15 Nordeste 0.2 921.3 -- 94
2021-01-07 14:00:00 2.4 6 Norte 22 Nordeste 0.4 921.5 -- 94
2021-01-07 13:00:00 1.9 6 Norte 12 Norte 1 921.8 -- 94
2021-01-07 12:00:00 2.2 5 Norte 17 Noroeste 1.4 922.2 -- 94
2021-01-07 11:00:00 2.1 4 Noroeste 12 Norte 0.6 922.1 -- 94
2021-01-07 10:00:00 1.9 5 Nordeste 18 Este 0.6 921.2 -- 94
2021-01-07 09:00:00 1.6 6 Nordeste 12 Nordeste 1.4 921.1 -- 94
2021-01-07 08:00:00 1.9 4 Norte 14 Norte 0 920.8 -- 94
2021-01-07 07:00:00 2.5 6 Nordeste 17 Nordeste 0.4 920 -- 94
2021-01-07 06:00:00 2.6 8 Nordeste 22 Este 0.8 920 -- 94
2021-01-07 05:00:00 2.6 7 Este 17 Nordeste 1.2 920.2 -- 94
2021-01-07 04:00:00 2.5 7 Nordeste 14 Este 1 920.4 -- 93
2021-01-07 03:00:00 2.8 8 Este 23 Este 0.6 920.4 -- 93
2021-01-07 02:00:00 2.6 13 Este 26 Este 0.6 921 -- 93
2021-01-07 01:00:00 2.4 13 Este 26 Este 0.2 921.7 -- 91
2021-01-07 00:00:00 2.8 9 Este 26 Este 0.6 922 -- 87
2021-01-06 23:00:00 3.5 12 Sudeste 27 Sudeste 0.4 922.5 -- 82
2021-01-06 22:00:00 3.5 12 Este 22 Este 0.8 922.4 -- 81
2021-01-06 21:00:00 4 7 Nordeste 21 Este 0 922.6 -- 69
2021-01-06 20:00:00 4.2 11 Este 23 Este 0 922.7 -- 64
2021-01-06 19:00:00 4.1 10 Este 21 Nordeste 0 923.2 -- 66
2021-01-06 18:00:00 4.9 5 Este 18 Sudeste 0 923.5 -- 70
2021-01-06 17:00:00 5.9 6 Este 16 Sudeste 0 923.1 -- 68
2021-01-06 16:00:00 6.1 6 Nordeste 18 Nordeste 0 923.1 -- 63
2021-01-06 15:00:00 7.1 7 Este 15 Norte 0 922.9 -- 58
2021-01-06 14:00:00 6.5 6 Noroeste 14 Oeste 0 923.8 -- 62
2021-01-06 13:00:00 5.2 6 Nordeste 20 Este 0 924.2 -- 62
2021-01-06 12:00:00 3.9 4 Este 12 Sur 0 925 -- 66
2021-01-06 11:00:00 2.3 4 Nordeste 15 Este 0 925.3 -- 67
2021-01-06 10:00:00 1.5 6 Este 19 Este 0 924.7 -- 68
2021-01-06 09:00:00 -0.6 7 Este 11 Este 0 924.2 -- 70
2021-01-06 08:00:00 -0.8 8 Este 12 Este 0 923.9 -- 70
2021-01-06 07:00:00 -1.3 8 Nordeste 12 Este 0 923.3 -- 71
2021-01-06 06:00:00 -1.5 6 Este 10 Este 0 922.9 -- 74
2021-01-06 05:00:00 -1.6 6 Nordeste 10 Sudeste 0 922.8 -- 73
2021-01-06 04:00:00 -1.4 7 Nordeste 13 Nordeste 0 923.1 -- 74
2021-01-06 03:00:00 -1.6 7 Nordeste 11 Nordeste 0 922.9 -- 77
2021-01-06 02:00:00 -1.9 7 Nordeste 11 Nordeste 0 922.9 -- 80
2021-01-06 01:00:00 -1.3 8 Nordeste 19 Este 0 923.1 -- 78
2021-01-06 00:00:00 -1.2 8 Nordeste 13 Este 0 923.2 -- 80
2021-01-05 23:00:00 -1.4 7 Este 21 Este 0 923.3 -- 81
2021-01-05 22:00:00 -1.1 8 Nordeste 12 Nordeste 0 923.4 -- 78
2021-01-05 21:00:00 -0.9 6 Nordeste 19 Este 0 923.3 -- 76
2021-01-05 20:00:00 -0.1 5 Nordeste 9 Este 0 923.4 -- 76
2021-01-05 19:00:00 1.2 5 Nordeste 12 Sudeste 0 923.2 -- 71
2021-01-05 18:00:00 3 4 Noroeste 8 Noroeste 0 922.9 -- 66
2021-01-05 17:00:00 4.5 4 Norte 11 Norte 0 922.8 -- 64
2021-01-05 16:00:00 5.7 5 Nordeste 13 Este 0 922.8 -- 48
2021-01-05 15:00:00 6.1 4 Este 13 Nordeste 0 923.2 -- 46
2021-01-05 14:00:00 5.8 5 Nordeste 15 Nordeste 0 923.5 -- 49
2021-01-05 13:00:00 5.2 4 Norte 12 Este 0 924.1 -- 57
2021-01-05 12:00:00 4.6 5 Sudeste 17 Este 0.4 925.2 -- 77
2021-01-05 11:00:00 2.8 6 Sudeste 18 Este 0.2 925.5 -- 89
2021-01-05 10:00:00 1.3 5 Sudeste 13 Sudeste 0 925.4 -- 95
2021-01-05 09:00:00 -0.8 7 Sudeste 17 Sudeste 0 924.9 -- 95
2021-01-05 08:00:00 -1.1 3 Sudeste 9 Sudeste 0 924.5 -- 95
2021-01-05 07:00:00 -0.9 4 Sudeste 13 Este 0 924.2 -- 95
2021-01-05 06:00:00 -0.8 6 Nordeste 9 Nordeste 0 924.1 -- 95
2021-01-05 05:00:00 0 5 Nordeste 7 Nordeste 0 924.2 -- 94
2021-01-05 04:00:00 0.2 4 Nordeste 18 Nordeste 0 924.6 -- 94
2021-01-05 03:00:00 0.7 4 Norte 5 Norte 0 924.6 -- 94
2021-01-05 02:00:00 0.1 4 Sudoeste 8 Sudoeste 0 924.8 -- 94
2021-01-05 01:00:00 0.4 4 Sudoeste 5 Sudoeste 0 925.1 -- 94
2021-01-05 00:00:00 0.4 4 Norte 23 Noroeste 0 925.4 -- 94
2021-01-04 23:00:00 0.7 5 Norte 8 Norte 0 925.4 -- 93
2021-01-04 22:00:00 1.1 2 Noroeste 10 Norte 0 925.5 -- 93
2021-01-04 21:00:00 1.5 4 Oeste 9 Oeste 0 925.7 -- 93
2021-01-04 20:00:00 1.7 4 Oeste 13 Oeste 1.4 925.6 -- 92
2021-01-04 19:00:00 2.1 4 Sudoeste 15 Sudoeste 1.2 925.1 -- 92
2021-01-04 18:00:00 2.1 4 Sur 22 Sur 0.4 924.8 -- 91
2021-01-04 17:00:00 2.6 10 Sur 23 Sudoeste 0 924.6 -- 90
2021-01-04 16:00:00 2.7 10 Sur 21 Sudoeste 0.2 925 -- 90
2021-01-04 15:00:00 2.9 11 Sudoeste 23 Sur 0 925 -- 90
2021-01-04 14:00:00 2.6 6 Sur 16 Oeste 0 925.5 -- 88
2021-01-04 13:00:00 1.9 8 Sudoeste 17 Sur 0 926.4 -- 90
2021-01-04 12:00:00 1.1 6 Sudoeste 16 Sudoeste 0 927.3 -- 92
2021-01-04 11:00:00 0.9 9 Oeste 15 Oeste 0 927.6 -- 92
2021-01-04 10:00:00 0.5 8 Oeste 16 Oeste 0 927.7 -- 94
2021-01-04 09:00:00 0.3 7 Noroeste 16 Noroeste 0 927.2 -- 94
2021-01-04 08:00:00 0 7 Oeste 17 Oeste 0 927 -- 93
2021-01-04 07:00:00 -0.8 7 Oeste 15 Oeste 0 927 -- 91
2021-01-04 06:00:00 -0.8 6 Sudoeste 16 Sudoeste 0 927 -- 88
2021-01-04 05:00:00 -0.5 9 Sudoeste 21 Sudoeste 0 927.5 -- 87
2021-01-04 04:00:00 -0.2 8 Oeste 15 Oeste 0 927.7 -- 87
2021-01-04 03:00:00 -0.6 6 Oeste 14 Sudoeste 0 927.7 -- 87
2021-01-04 02:00:00 -0.3 7 Sudoeste 13 Oeste 0 928 -- 83
2021-01-04 01:00:00 0.6 9 Oeste 14 Oeste 0 928.4 -- 81
2021-01-04 00:00:00 1 8 Oeste 19 Noroeste 0 928.6 -- 78
2021-01-03 23:00:00 1 10 Oeste 19 Sudoeste 0 929.1 -- 79
2021-01-03 22:00:00 1.2 12 Oeste 18 Oeste 0 929.2 -- 78
2021-01-03 21:00:00 1.3 8 Sudoeste 16 Sudoeste 0 929.4 -- 75
2021-01-03 20:00:00 2.2 9 Sudoeste 18 Oeste 0 929.3 -- 70
2021-01-03 19:00:00 2.7 10 Oeste 15 Oeste 0 928.9 -- 64
2021-01-03 18:00:00 5 9 Oeste 21 Noroeste 0 928.9 -- 55
2021-01-03 17:00:00 6.1 9 Oeste 28 Oeste 0 929 -- 54
2021-01-03 16:00:00 6.6 13 Oeste 24 Noroeste 0 929.2 -- 51
2021-01-03 15:00:00 6.2 10 Noroeste 28 Oeste 0 929.3 -- 52
2021-01-03 14:00:00 5.9 13 Oeste 30 Oeste 0 929.6 -- 50
2021-01-03 13:00:00 5.1 12 Oeste 25 Oeste 0 930.3 -- 56
2021-01-03 12:00:00 3.9 10 Oeste 20 Oeste 0 930.9 -- 63
2021-01-03 11:00:00 2.7 6 Noroeste 13 Noroeste 0 930.7 -- 67
2021-01-03 10:00:00 0.2 9 Oeste 19 Noroeste 0 930.5 -- 72
2021-01-03 09:00:00 -1.8 6 Oeste 14 Noroeste 0 930.3 -- 77
2021-01-03 08:00:00 -1.7 8 Noroeste 15 Noroeste 0 929.9 -- 76
2021-01-03 07:00:00 -2.2 5 Oeste 19 Noroeste 0 929.7 -- 76
2021-01-03 06:00:00 -1.5 8 Noroeste 13 Sudoeste 0 929.6 -- 74
2021-01-03 05:00:00 -1.6 10 Noroeste 16 Noroeste 0 929.6 -- 78
2021-01-03 04:00:00 -1.4 8 Noroeste 13 Noroeste 0 929.9 -- 78
2021-01-03 03:00:00 -1.7 9 Noroeste 12 Noroeste 0 929.6 -- 81
2021-01-03 02:00:00 -1.6 8 Noroeste 15 Noroeste 0 929.4 -- 82
2021-01-03 01:00:00 -1.8 6 Noroeste 12 Oeste 0 929.5 -- 82
2021-01-03 00:00:00 -1.3 7 Noroeste 21 Noroeste 0 929.9 -- 81
2021-01-02 23:00:00 -0.8 9 Norte 19 Noroeste 0 929.5 -- 79
2021-01-02 22:00:00 -0.2 9 Noroeste 23 Noroeste 0 929.1 -- 77
2021-01-02 21:00:00 0.3 8 Noroeste 16 Noroeste 0 929 -- 76
2021-01-02 20:00:00 0.6 8 Noroeste 14 Noroeste 0 928.6 -- 76
2021-01-02 19:00:00 1.2 8 Noroeste 24 Noroeste 0 928.6 -- 73
2021-01-02 18:00:00 2.8 13 Noroeste 30 Noroeste 0 928.3 -- 64
2021-01-02 17:00:00 4.2 13 Noroeste 26 Noroeste 0 927.8 -- 59
2021-01-02 16:00:00 4.5 14 Noroeste 31 Oeste 0 927.5 -- 56
2021-01-02 15:00:00 4.7 13 Noroeste 25 Oeste 0 927.3 -- 58
2021-01-02 14:00:00 4.3 11 Noroeste 25 Noroeste 0 927.6 -- 65